<?xml version="1.0" encoding="UTF-8" standalone="no" ?>
<gpx xmlns="http://www.topografix.com/GPX/1/1" xmlns:xsi="http://www.w3.org/2001/XMLSchema-instance" xsi:schemaLocation="http://www.topografix.com/GPX/1/1 http://www.topografix.com/GPX/1/1/gpx.xsd" version="1.1" creator="VisuGPX - https://www.visugpx.com">
  <metadata>
    <name>Tracé actuel: 06 AVR 2011 07:16</name>
  </metadata>
  <trk>
    <name><![CDATA[Tracé actuel: 06 AVR 2011 07:16]]></name>
    <trkseg>
      <trkpt lat="44.75816" lon="6.99266">
        <ele>1640.63</ele>
        <time>2011-04-06T06:16:20Z</time>
      </trkpt>
      <trkpt lat="44.75833" lon="6.99325">
        <ele>1698.79</ele>
        <time>2011-04-06T06:18:13Z</time>
      </trkpt>
      <trkpt lat="44.7588" lon="6.99341">
        <ele>1701.19</ele>
        <time>2011-04-06T06:19:26Z</time>
      </trkpt>
      <trkpt lat="44.75871" lon="6.99391">
        <ele>1711.28</ele>
        <time>2011-04-06T06:23:25Z</time>
      </trkpt>
      <trkpt lat="44.75874" lon="6.99447">
        <ele>1718.01</ele>
        <time>2011-04-06T06:24:29Z</time>
      </trkpt>
      <trkpt lat="44.75879" lon="6.99499">
        <ele>1727.63</ele>
        <time>2011-04-06T06:25:26Z</time>
      </trkpt>
      <trkpt lat="44.75874" lon="6.99534">
        <ele>1736.28</ele>
        <time>2011-04-06T06:27:28Z</time>
      </trkpt>
      <trkpt lat="44.75874" lon="6.99535">
        <ele>1736.28</ele>
        <time>2011-04-06T06:30:11Z</time>
      </trkpt>
      <trkpt lat="44.75901" lon="6.99561">
        <ele>1746.37</ele>
        <time>2011-04-06T06:31:47Z</time>
      </trkpt>
      <trkpt lat="44.75916" lon="6.99585">
        <ele>1758.39</ele>
        <time>2011-04-06T06:33:15Z</time>
      </trkpt>
      <trkpt lat="44.75946" lon="6.99593">
        <ele>1767.52</ele>
        <time>2011-04-06T06:34:34Z</time>
      </trkpt>
      <trkpt lat="44.75922" lon="6.99644">
        <ele>1779.06</ele>
        <time>2011-04-06T06:35:55Z</time>
      </trkpt>
      <trkpt lat="44.75958" lon="6.99649">
        <ele>1787.71</ele>
        <time>2011-04-06T06:37:30Z</time>
      </trkpt>
      <trkpt lat="44.75998" lon="6.99678">
        <ele>1800.69</ele>
        <time>2011-04-06T06:39:33Z</time>
      </trkpt>
      <trkpt lat="44.76003" lon="6.99676">
        <ele>1802.13</ele>
        <time>2011-04-06T06:41:56Z</time>
      </trkpt>
      <trkpt lat="44.76018" lon="6.99697">
        <ele>1810.3</ele>
        <time>2011-04-06T06:43:29Z</time>
      </trkpt>
      <trkpt lat="44.75998" lon="6.99741">
        <ele>1825.2</ele>
        <time>2011-04-06T06:45:17Z</time>
      </trkpt>
      <trkpt lat="44.76025" lon="6.99751">
        <ele>1833.37</ele>
        <time>2011-04-06T06:46:48Z</time>
      </trkpt>
      <trkpt lat="44.76013" lon="6.99764">
        <ele>1843.95</ele>
        <time>2011-04-06T06:48:29Z</time>
      </trkpt>
      <trkpt lat="44.76044" lon="6.99799">
        <ele>1853.56</ele>
        <time>2011-04-06T06:50:05Z</time>
      </trkpt>
      <trkpt lat="44.76054" lon="6.99813">
        <ele>1863.17</ele>
        <time>2011-04-06T06:51:20Z</time>
      </trkpt>
      <trkpt lat="44.76065" lon="6.99823">
        <ele>1871.82</ele>
        <time>2011-04-06T06:52:27Z</time>
      </trkpt>
      <trkpt lat="44.76035" lon="6.99843">
        <ele>1880.96</ele>
        <time>2011-04-06T06:53:35Z</time>
      </trkpt>
      <trkpt lat="44.76036" lon="6.99865">
        <ele>1887.69</ele>
        <time>2011-04-06T06:54:52Z</time>
      </trkpt>
      <trkpt lat="44.76062" lon="6.99893">
        <ele>1899.7</ele>
        <time>2011-04-06T06:56:45Z</time>
      </trkpt>
      <trkpt lat="44.76076" lon="6.99894">
        <ele>1910.28</ele>
        <time>2011-04-06T06:58:04Z</time>
      </trkpt>
      <trkpt lat="44.76112" lon="6.99933">
        <ele>1915.56</ele>
        <time>2011-04-06T06:59:00Z</time>
      </trkpt>
      <trkpt lat="44.76117" lon="6.99944">
        <ele>1924.22</ele>
        <time>2011-04-06T06:59:59Z</time>
      </trkpt>
      <trkpt lat="44.76128" lon="6.99963">
        <ele>1933.35</ele>
        <time>2011-04-06T07:01:19Z</time>
      </trkpt>
      <trkpt lat="44.76145" lon="7.00007">
        <ele>1944.4</ele>
        <time>2011-04-06T07:02:39Z</time>
      </trkpt>
      <trkpt lat="44.76152" lon="7.0003">
        <ele>1950.65</ele>
        <time>2011-04-06T07:03:17Z</time>
      </trkpt>
      <trkpt lat="44.76157" lon="7.00071">
        <ele>1958.82</ele>
        <time>2011-04-06T07:04:42Z</time>
      </trkpt>
      <trkpt lat="44.7618" lon="7.00095">
        <ele>1969.88</ele>
        <time>2011-04-06T07:05:54Z</time>
      </trkpt>
      <trkpt lat="44.76212" lon="7.00103">
        <ele>1979.49</ele>
        <time>2011-04-06T07:07:01Z</time>
      </trkpt>
      <trkpt lat="44.76257" lon="7.00134">
        <ele>1986.7</ele>
        <time>2011-04-06T07:08:20Z</time>
      </trkpt>
      <trkpt lat="44.76276" lon="7.00151">
        <ele>1992.95</ele>
        <time>2011-04-06T07:09:33Z</time>
      </trkpt>
      <trkpt lat="44.76275" lon="7.00158">
        <ele>1994.39</ele>
        <time>2011-04-06T07:10:32Z</time>
      </trkpt>
      <trkpt lat="44.76277" lon="7.00202">
        <ele>2001.6</ele>
        <time>2011-04-06T07:11:56Z</time>
      </trkpt>
      <trkpt lat="44.76262" lon="7.00234">
        <ele>2008.33</ele>
        <time>2011-04-06T07:12:44Z</time>
      </trkpt>
      <trkpt lat="44.76262" lon="7.00298">
        <ele>2016.98</ele>
        <time>2011-04-06T07:13:53Z</time>
      </trkpt>
      <trkpt lat="44.76262" lon="7.00323">
        <ele>2025.15</ele>
        <time>2011-04-06T07:15:10Z</time>
      </trkpt>
      <trkpt lat="44.76238" lon="7.00346">
        <ele>2029</ele>
        <time>2011-04-06T07:16:03Z</time>
      </trkpt>
      <trkpt lat="44.76236" lon="7.00348">
        <ele>2029</ele>
        <time>2011-04-06T07:17:43Z</time>
      </trkpt>
      <trkpt lat="44.76229" lon="7.0038">
        <ele>2031.88</ele>
        <time>2011-04-06T07:19:07Z</time>
      </trkpt>
      <trkpt lat="44.76208" lon="7.00397">
        <ele>2032.36</ele>
        <time>2011-04-06T07:20:02Z</time>
      </trkpt>
      <trkpt lat="44.76194" lon="7.004">
        <ele>2034.77</ele>
        <time>2011-04-06T07:21:11Z</time>
      </trkpt>
      <trkpt lat="44.76183" lon="7.004">
        <ele>2033.81</ele>
        <time>2011-04-06T07:22:04Z</time>
      </trkpt>
      <trkpt lat="44.76185" lon="7.00421">
        <ele>2036.69</ele>
        <time>2011-04-06T07:23:18Z</time>
      </trkpt>
      <trkpt lat="44.76212" lon="7.00434">
        <ele>2031.88</ele>
        <time>2011-04-06T07:25:00Z</time>
      </trkpt>
      <trkpt lat="44.76198" lon="7.00456">
        <ele>2053.03</ele>
        <time>2011-04-06T07:32:29Z</time>
      </trkpt>
      <trkpt lat="44.76191" lon="7.00505">
        <ele>2061.2</ele>
        <time>2011-04-06T07:33:19Z</time>
      </trkpt>
      <trkpt lat="44.7618" lon="7.00509">
        <ele>2068.41</ele>
        <time>2011-04-06T07:34:41Z</time>
      </trkpt>
      <trkpt lat="44.76169" lon="7.00503">
        <ele>2072.74</ele>
        <time>2011-04-06T07:35:14Z</time>
      </trkpt>
      <trkpt lat="44.76148" lon="7.0053">
        <ele>2078.03</ele>
        <time>2011-04-06T07:35:50Z</time>
      </trkpt>
      <trkpt lat="44.76161" lon="7.00571">
        <ele>2086.68</ele>
        <time>2011-04-06T07:36:41Z</time>
      </trkpt>
      <trkpt lat="44.76154" lon="7.00585">
        <ele>2092.93</ele>
        <time>2011-04-06T07:37:50Z</time>
      </trkpt>
      <trkpt lat="44.76127" lon="7.00595">
        <ele>2100.14</ele>
        <time>2011-04-06T07:38:32Z</time>
      </trkpt>
      <trkpt lat="44.76121" lon="7.00595">
        <ele>2101.58</ele>
        <time>2011-04-06T07:39:43Z</time>
      </trkpt>
      <trkpt lat="44.7612" lon="7.00595">
        <ele>2101.58</ele>
        <time>2011-04-06T07:41:23Z</time>
      </trkpt>
      <trkpt lat="44.76119" lon="7.00596">
        <ele>2101.1</ele>
        <time>2011-04-06T07:43:09Z</time>
      </trkpt>
      <trkpt lat="44.76099" lon="7.00609">
        <ele>2105.91</ele>
        <time>2011-04-06T07:44:17Z</time>
      </trkpt>
      <trkpt lat="44.76114" lon="7.00653">
        <ele>2113.6</ele>
        <time>2011-04-06T07:44:54Z</time>
      </trkpt>
      <trkpt lat="44.76127" lon="7.00675">
        <ele>2119.36</ele>
        <time>2011-04-06T07:45:41Z</time>
      </trkpt>
      <trkpt lat="44.76149" lon="7.00703">
        <ele>2127.05</ele>
        <time>2011-04-06T07:46:19Z</time>
      </trkpt>
      <trkpt lat="44.76173" lon="7.00732">
        <ele>2136.19</ele>
        <time>2011-04-06T07:47:19Z</time>
      </trkpt>
      <trkpt lat="44.76159" lon="7.00743">
        <ele>2137.63</ele>
        <time>2011-04-06T07:48:17Z</time>
      </trkpt>
      <trkpt lat="44.76159" lon="7.00744">
        <ele>2137.15</ele>
        <time>2011-04-06T07:51:32Z</time>
      </trkpt>
      <trkpt lat="44.76159" lon="7.00745">
        <ele>2137.63</ele>
        <time>2011-04-06T07:52:51Z</time>
      </trkpt>
      <trkpt lat="44.76159" lon="7.00746">
        <ele>2137.15</ele>
        <time>2011-04-06T07:54:05Z</time>
      </trkpt>
      <trkpt lat="44.76152" lon="7.00762">
        <ele>2139.07</ele>
        <time>2011-04-06T07:55:11Z</time>
      </trkpt>
      <trkpt lat="44.7613" lon="7.00773">
        <ele>2143.88</ele>
        <time>2011-04-06T07:56:37Z</time>
      </trkpt>
      <trkpt lat="44.76113" lon="7.00788">
        <ele>2145.8</ele>
        <time>2011-04-06T07:57:46Z</time>
      </trkpt>
      <trkpt lat="44.76105" lon="7.00822">
        <ele>2154.45</ele>
        <time>2011-04-06T07:58:38Z</time>
      </trkpt>
      <trkpt lat="44.7612" lon="7.00848">
        <ele>2159.74</ele>
        <time>2011-04-06T07:59:23Z</time>
      </trkpt>
      <trkpt lat="44.76112" lon="7.00866">
        <ele>2165.99</ele>
        <time>2011-04-06T08:00:16Z</time>
      </trkpt>
      <trkpt lat="44.7613" lon="7.00898">
        <ele>2171.76</ele>
        <time>2011-04-06T08:01:31Z</time>
      </trkpt>
      <trkpt lat="44.76174" lon="7.00903">
        <ele>2178.97</ele>
        <time>2011-04-06T08:02:30Z</time>
      </trkpt>
      <trkpt lat="44.76172" lon="7.00899">
        <ele>2183.29</ele>
        <time>2011-04-06T08:04:01Z</time>
      </trkpt>
      <trkpt lat="44.76175" lon="7.00928">
        <ele>2190.98</ele>
        <time>2011-04-06T08:05:21Z</time>
      </trkpt>
      <trkpt lat="44.76182" lon="7.00953">
        <ele>2197.71</ele>
        <time>2011-04-06T08:06:34Z</time>
      </trkpt>
      <trkpt lat="44.762" lon="7.00946">
        <ele>2203.96</ele>
        <time>2011-04-06T08:07:59Z</time>
      </trkpt>
      <trkpt lat="44.76202" lon="7.00978">
        <ele>2220.3</ele>
        <time>2011-04-06T08:11:27Z</time>
      </trkpt>
      <trkpt lat="44.76223" lon="7.00982">
        <ele>2227.03</ele>
        <time>2011-04-06T08:13:37Z</time>
      </trkpt>
      <trkpt lat="44.76239" lon="7.00995">
        <ele>2235.68</ele>
        <time>2011-04-06T08:15:56Z</time>
      </trkpt>
      <trkpt lat="44.76249" lon="7.01027">
        <ele>2242.41</ele>
        <time>2011-04-06T08:21:47Z</time>
      </trkpt>
      <trkpt lat="44.76246" lon="7.01047">
        <ele>2244.82</ele>
        <time>2011-04-06T08:25:15Z</time>
      </trkpt>
      <trkpt lat="44.76238" lon="7.0106">
        <ele>2249.14</ele>
        <time>2011-04-06T08:30:45Z</time>
      </trkpt>
      <trkpt lat="44.76227" lon="7.01091">
        <ele>2252.99</ele>
        <time>2011-04-06T08:31:50Z</time>
      </trkpt>
      <trkpt lat="44.76212" lon="7.01131">
        <ele>2264.52</ele>
        <time>2011-04-06T08:33:06Z</time>
      </trkpt>
      <trkpt lat="44.76207" lon="7.0115">
        <ele>2271.25</ele>
        <time>2011-04-06T08:34:06Z</time>
      </trkpt>
      <trkpt lat="44.76185" lon="7.01174">
        <ele>2279.9</ele>
        <time>2011-04-06T08:35:23Z</time>
      </trkpt>
      <trkpt lat="44.76191" lon="7.01194">
        <ele>2286.63</ele>
        <time>2011-04-06T08:36:39Z</time>
      </trkpt>
      <trkpt lat="44.76181" lon="7.01226">
        <ele>2295.28</ele>
        <time>2011-04-06T08:37:39Z</time>
      </trkpt>
      <trkpt lat="44.76137" lon="7.01228">
        <ele>2307.78</ele>
        <time>2011-04-06T08:39:51Z</time>
      </trkpt>
      <trkpt lat="44.76123" lon="7.01287">
        <ele>2321.72</ele>
        <time>2011-04-06T08:42:38Z</time>
      </trkpt>
      <trkpt lat="44.76119" lon="7.01303">
        <ele>2326.05</ele>
        <time>2011-04-06T08:44:53Z</time>
      </trkpt>
      <trkpt lat="44.76136" lon="7.0132">
        <ele>2332.3</ele>
        <time>2011-04-06T08:50:56Z</time>
      </trkpt>
      <trkpt lat="44.76167" lon="7.01333">
        <ele>2339.51</ele>
        <time>2011-04-06T08:51:56Z</time>
      </trkpt>
      <trkpt lat="44.76212" lon="7.01347">
        <ele>2348.64</ele>
        <time>2011-04-06T08:54:03Z</time>
      </trkpt>
      <trkpt lat="44.76226" lon="7.01349">
        <ele>2352.96</ele>
        <time>2011-04-06T08:56:19Z</time>
      </trkpt>
      <trkpt lat="44.76221" lon="7.01359">
        <ele>2356.33</ele>
        <time>2011-04-06T08:59:34Z</time>
      </trkpt>
      <trkpt lat="44.76197" lon="7.01392">
        <ele>2368.35</ele>
        <time>2011-04-06T09:00:53Z</time>
      </trkpt>
      <trkpt lat="44.76177" lon="7.01432">
        <ele>2379.4</ele>
        <time>2011-04-06T09:02:42Z</time>
      </trkpt>
      <trkpt lat="44.76156" lon="7.01452">
        <ele>2392.38</ele>
        <time>2011-04-06T09:04:10Z</time>
      </trkpt>
      <trkpt lat="44.76133" lon="7.01477">
        <ele>2410.16</ele>
        <time>2011-04-06T09:05:56Z</time>
      </trkpt>
      <trkpt lat="44.76106" lon="7.01507">
        <ele>2420.26</ele>
        <time>2011-04-06T09:07:23Z</time>
      </trkpt>
      <trkpt lat="44.76089" lon="7.01552">
        <ele>2430.83</ele>
        <time>2011-04-06T09:08:21Z</time>
      </trkpt>
      <trkpt lat="44.76064" lon="7.01568">
        <ele>2440.92</ele>
        <time>2011-04-06T09:11:14Z</time>
      </trkpt>
      <trkpt lat="44.76036" lon="7.01593">
        <ele>2451.02</ele>
        <time>2011-04-06T09:13:06Z</time>
      </trkpt>
      <trkpt lat="44.76018" lon="7.01606">
        <ele>2457.27</ele>
        <time>2011-04-06T09:16:45Z</time>
      </trkpt>
      <trkpt lat="44.75997" lon="7.01623">
        <ele>2465.92</ele>
        <time>2011-04-06T09:18:06Z</time>
      </trkpt>
      <trkpt lat="44.75983" lon="7.01633">
        <ele>2474.57</ele>
        <time>2011-04-06T09:20:09Z</time>
      </trkpt>
      <trkpt lat="44.75981" lon="7.01648">
        <ele>2478.42</ele>
        <time>2011-04-06T09:21:25Z</time>
      </trkpt>
      <trkpt lat="44.75961" lon="7.01694">
        <ele>2479.38</ele>
        <time>2011-04-06T09:23:39Z</time>
      </trkpt>
      <trkpt lat="44.75956" lon="7.01723">
        <ele>2484.66</ele>
        <time>2011-04-06T09:26:17Z</time>
      </trkpt>
      <trkpt lat="44.75926" lon="7.01767">
        <ele>2497.64</ele>
        <time>2011-04-06T09:27:52Z</time>
      </trkpt>
      <trkpt lat="44.75897" lon="7.0179">
        <ele>2507.74</ele>
        <time>2011-04-06T09:29:20Z</time>
      </trkpt>
      <trkpt lat="44.75875" lon="7.01809">
        <ele>2507.26</ele>
        <time>2011-04-06T09:33:10Z</time>
      </trkpt>
      <trkpt lat="44.7583" lon="7.01842">
        <ele>2522.64</ele>
        <time>2011-04-06T09:34:37Z</time>
      </trkpt>
      <trkpt lat="44.75783" lon="7.01875">
        <ele>2531.77</ele>
        <time>2011-04-06T09:35:50Z</time>
      </trkpt>
      <trkpt lat="44.75751" lon="7.01906">
        <ele>2543.31</ele>
        <time>2011-04-06T09:37:06Z</time>
      </trkpt>
      <trkpt lat="44.75729" lon="7.01929">
        <ele>2551.96</ele>
        <time>2011-04-06T09:38:17Z</time>
      </trkpt>
      <trkpt lat="44.75714" lon="7.01939">
        <ele>2558.69</ele>
        <time>2011-04-06T09:39:03Z</time>
      </trkpt>
      <trkpt lat="44.75689" lon="7.01948">
        <ele>2569.26</ele>
        <time>2011-04-06T09:40:32Z</time>
      </trkpt>
      <trkpt lat="44.75671" lon="7.01976">
        <ele>2577.91</ele>
        <time>2011-04-06T09:41:38Z</time>
      </trkpt>
      <trkpt lat="44.75648" lon="7.02018">
        <ele>2588.49</ele>
        <time>2011-04-06T09:42:59Z</time>
      </trkpt>
      <trkpt lat="44.75632" lon="7.02047">
        <ele>2595.7</ele>
        <time>2011-04-06T09:44:21Z</time>
      </trkpt>
      <trkpt lat="44.75605" lon="7.0209">
        <ele>2609.16</ele>
        <time>2011-04-06T09:46:13Z</time>
      </trkpt>
      <trkpt lat="44.75584" lon="7.02123">
        <ele>2620.21</ele>
        <time>2011-04-06T09:48:16Z</time>
      </trkpt>
      <trkpt lat="44.75563" lon="7.02168">
        <ele>2628.38</ele>
        <time>2011-04-06T09:50:06Z</time>
      </trkpt>
      <trkpt lat="44.75556" lon="7.02182">
        <ele>2631.75</ele>
        <time>2011-04-06T09:50:22Z</time>
      </trkpt>
      <trkpt lat="44.75532" lon="7.02228">
        <ele>2641.84</ele>
        <time>2011-04-06T09:51:40Z</time>
      </trkpt>
      <trkpt lat="44.75509" lon="7.02255">
        <ele>2650.01</ele>
        <time>2011-04-06T09:52:45Z</time>
      </trkpt>
      <trkpt lat="44.75513" lon="7.02237">
        <ele>2653.86</ele>
        <time>2011-04-06T09:54:57Z</time>
      </trkpt>
      <trkpt lat="44.75513" lon="7.02238">
        <ele>2653.38</ele>
        <time>2011-04-06T09:57:51Z</time>
      </trkpt>
      <trkpt lat="44.75513" lon="7.02237">
        <ele>2653.86</ele>
        <time>2011-04-06T10:01:11Z</time>
      </trkpt>
      <trkpt lat="44.75513" lon="7.02237">
        <ele>2653.38</ele>
        <time>2011-04-06T10:01:46Z</time>
      </trkpt>
      <trkpt lat="44.75513" lon="7.02237">
        <ele>2653.86</ele>
        <time>2011-04-06T10:02:09Z</time>
      </trkpt>
      <trkpt lat="44.75514" lon="7.02237">
        <ele>2654.34</ele>
        <time>2011-04-06T10:02:31Z</time>
      </trkpt>
      <trkpt lat="44.75513" lon="7.02229">
        <ele>2655.78</ele>
        <time>2011-04-06T10:02:53Z</time>
      </trkpt>
      <trkpt lat="44.75511" lon="7.02219">
        <ele>2658.66</ele>
        <time>2011-04-06T10:03:08Z</time>
      </trkpt>
      <trkpt lat="44.75506" lon="7.02223">
        <ele>2661.07</ele>
        <time>2011-04-06T10:03:23Z</time>
      </trkpt>
      <trkpt lat="44.75506" lon="7.02212">
        <ele>2662.99</ele>
        <time>2011-04-06T10:03:37Z</time>
      </trkpt>
      <trkpt lat="44.75506" lon="7.02205">
        <ele>2664.91</ele>
        <time>2011-04-06T10:03:53Z</time>
      </trkpt>
      <trkpt lat="44.75505" lon="7.02198">
        <ele>2666.83</ele>
        <time>2011-04-06T10:04:08Z</time>
      </trkpt>
      <trkpt lat="44.755" lon="7.02202">
        <ele>2670.2</ele>
        <time>2011-04-06T10:04:26Z</time>
      </trkpt>
      <trkpt lat="44.75493" lon="7.0221">
        <ele>2671.64</ele>
        <time>2011-04-06T10:04:41Z</time>
      </trkpt>
      <trkpt lat="44.75493" lon="7.0221">
        <ele>2671.64</ele>
        <time>2011-04-06T10:04:56Z</time>
      </trkpt>
      <trkpt lat="44.75494" lon="7.0221">
        <ele>2671.64</ele>
        <time>2011-04-06T10:05:12Z</time>
      </trkpt>
      <trkpt lat="44.75494" lon="7.0221">
        <ele>2672.12</ele>
        <time>2011-04-06T10:05:43Z</time>
      </trkpt>
      <trkpt lat="44.75494" lon="7.0221">
        <ele>2671.64</ele>
        <time>2011-04-06T10:06:14Z</time>
      </trkpt>
      <trkpt lat="44.75494" lon="7.0221">
        <ele>2672.12</ele>
        <time>2011-04-06T10:06:36Z</time>
      </trkpt>
      <trkpt lat="44.75494" lon="7.0221">
        <ele>2671.64</ele>
        <time>2011-04-06T10:06:53Z</time>
      </trkpt>
      <trkpt lat="44.75493" lon="7.02209">
        <ele>2672.12</ele>
        <time>2011-04-06T10:07:24Z</time>
      </trkpt>
      <trkpt lat="44.75493" lon="7.0221">
        <ele>2671.64</ele>
        <time>2011-04-06T10:07:49Z</time>
      </trkpt>
      <trkpt lat="44.75493" lon="7.0221">
        <ele>2671.64</ele>
        <time>2011-04-06T10:08:26Z</time>
      </trkpt>
      <trkpt lat="44.75493" lon="7.0221">
        <ele>2671.64</ele>
        <time>2011-04-06T10:09:07Z</time>
      </trkpt>
      <trkpt lat="44.75493" lon="7.0221">
        <ele>2671.64</ele>
        <time>2011-04-06T10:09:47Z</time>
      </trkpt>
      <trkpt lat="44.75493" lon="7.0221">
        <ele>2672.6</ele>
        <time>2011-04-06T10:10:35Z</time>
      </trkpt>
      <trkpt lat="44.75493" lon="7.0221">
        <ele>2672.12</ele>
        <time>2011-04-06T10:11:19Z</time>
      </trkpt>
      <trkpt lat="44.75493" lon="7.0221">
        <ele>2672.6</ele>
        <time>2011-04-06T10:11:43Z</time>
      </trkpt>
      <trkpt lat="44.75493" lon="7.02209">
        <ele>2672.6</ele>
        <time>2011-04-06T10:12:24Z</time>
      </trkpt>
      <trkpt lat="44.75493" lon="7.0221">
        <ele>2671.64</ele>
        <time>2011-04-06T10:13:04Z</time>
      </trkpt>
      <trkpt lat="44.75493" lon="7.0221">
        <ele>2672.6</ele>
        <time>2011-04-06T10:13:46Z</time>
      </trkpt>
      <trkpt lat="44.75493" lon="7.0221">
        <ele>2673.08</ele>
        <time>2011-04-06T10:14:24Z</time>
      </trkpt>
      <trkpt lat="44.75494" lon="7.0221">
        <ele>2673.08</ele>
        <time>2011-04-06T10:14:54Z</time>
      </trkpt>
      <trkpt lat="44.75494" lon="7.0221">
        <ele>2673.56</ele>
        <time>2011-04-06T10:15:33Z</time>
      </trkpt>
      <trkpt lat="44.75494" lon="7.0221">
        <ele>2673.56</ele>
        <time>2011-04-06T10:16:13Z</time>
      </trkpt>
      <trkpt lat="44.75494" lon="7.0221">
        <ele>2673.56</ele>
        <time>2011-04-06T10:16:47Z</time>
      </trkpt>
      <trkpt lat="44.75494" lon="7.0221">
        <ele>2673.08</ele>
        <time>2011-04-06T10:17:27Z</time>
      </trkpt>
      <trkpt lat="44.75493" lon="7.0221">
        <ele>2673.56</ele>
        <time>2011-04-06T10:18:08Z</time>
      </trkpt>
      <trkpt lat="44.75493" lon="7.0221">
        <ele>2675.49</ele>
        <time>2011-04-06T10:18:27Z</time>
      </trkpt>
      <trkpt lat="44.75493" lon="7.0221">
        <ele>2674.52</ele>
        <time>2011-04-06T10:18:50Z</time>
      </trkpt>
      <trkpt lat="44.75493" lon="7.0221">
        <ele>2674.04</ele>
        <time>2011-04-06T10:19:09Z</time>
      </trkpt>
      <trkpt lat="44.75493" lon="7.0221">
        <ele>2675.01</ele>
        <time>2011-04-06T10:19:32Z</time>
      </trkpt>
      <trkpt lat="44.75493" lon="7.0221">
        <ele>2675.01</ele>
        <time>2011-04-06T10:19:53Z</time>
      </trkpt>
      <trkpt lat="44.75494" lon="7.02209">
        <ele>2671.64</ele>
        <time>2011-04-06T10:20:01Z</time>
      </trkpt>
      <trkpt lat="44.75495" lon="7.02209">
        <ele>2670.2</ele>
        <time>2011-04-06T10:20:02Z</time>
      </trkpt>
      <trkpt lat="44.75501" lon="7.02215">
        <ele>2665.87</ele>
        <time>2011-04-06T10:20:07Z</time>
      </trkpt>
      <trkpt lat="44.75505" lon="7.02221">
        <ele>2662.03</ele>
        <time>2011-04-06T10:20:16Z</time>
      </trkpt>
      <trkpt lat="44.75507" lon="7.02224">
        <ele>2660.59</ele>
        <time>2011-04-06T10:20:25Z</time>
      </trkpt>
      <trkpt lat="44.75505" lon="7.02242">
        <ele>2656.74</ele>
        <time>2011-04-06T10:20:31Z</time>
      </trkpt>
      <trkpt lat="44.75505" lon="7.02244">
        <ele>2656.26</ele>
        <time>2011-04-06T10:20:32Z</time>
      </trkpt>
      <trkpt lat="44.75508" lon="7.02249">
        <ele>2654.82</ele>
        <time>2011-04-06T10:20:47Z</time>
      </trkpt>
      <trkpt lat="44.75508" lon="7.0225">
        <ele>2654.82</ele>
        <time>2011-04-06T10:21:25Z</time>
      </trkpt>
      <trkpt lat="44.75507" lon="7.02249">
        <ele>2655.3</ele>
        <time>2011-04-06T10:22:08Z</time>
      </trkpt>
      <trkpt lat="44.75507" lon="7.02249">
        <ele>2655.3</ele>
        <time>2011-04-06T10:22:50Z</time>
      </trkpt>
      <trkpt lat="44.75507" lon="7.02249">
        <ele>2655.3</ele>
        <time>2011-04-06T10:23:32Z</time>
      </trkpt>
      <trkpt lat="44.75507" lon="7.02249">
        <ele>2655.78</ele>
        <time>2011-04-06T10:24:17Z</time>
      </trkpt>
      <trkpt lat="44.75507" lon="7.02249">
        <ele>2655.78</ele>
        <time>2011-04-06T10:24:57Z</time>
      </trkpt>
      <trkpt lat="44.75508" lon="7.02249">
        <ele>2655.78</ele>
        <time>2011-04-06T10:25:19Z</time>
      </trkpt>
      <trkpt lat="44.75508" lon="7.02249">
        <ele>2655.78</ele>
        <time>2011-04-06T10:25:57Z</time>
      </trkpt>
      <trkpt lat="44.75508" lon="7.02249">
        <ele>2654.82</ele>
        <time>2011-04-06T10:26:21Z</time>
      </trkpt>
      <trkpt lat="44.75508" lon="7.02249">
        <ele>2654.82</ele>
        <time>2011-04-06T10:27:08Z</time>
      </trkpt>
      <trkpt lat="44.75508" lon="7.02249">
        <ele>2651.45</ele>
        <time>2011-04-06T10:27:10Z</time>
      </trkpt>
      <trkpt lat="44.75508" lon="7.02249">
        <ele>2648.09</ele>
        <time>2011-04-06T10:27:12Z</time>
      </trkpt>
      <trkpt lat="44.75508" lon="7.02249">
        <ele>2643.76</ele>
        <time>2011-04-06T10:27:14Z</time>
      </trkpt>
      <trkpt lat="44.75508" lon="7.02249">
        <ele>2640.88</ele>
        <time>2011-04-06T10:27:15Z</time>
      </trkpt>
      <trkpt lat="44.75516" lon="7.02259">
        <ele>2635.11</ele>
        <time>2011-04-06T10:27:18Z</time>
      </trkpt>
      <trkpt lat="44.75522" lon="7.02264">
        <ele>2629.82</ele>
        <time>2011-04-06T10:27:20Z</time>
      </trkpt>
      <trkpt lat="44.7553" lon="7.02279">
        <ele>2626.46</ele>
        <time>2011-04-06T10:27:23Z</time>
      </trkpt>
      <trkpt lat="44.75537" lon="7.023">
        <ele>2622.13</ele>
        <time>2011-04-06T10:27:25Z</time>
      </trkpt>
      <trkpt lat="44.75551" lon="7.0233">
        <ele>2613.48</ele>
        <time>2011-04-06T10:27:27Z</time>
      </trkpt>
      <trkpt lat="44.75558" lon="7.02342">
        <ele>2613.48</ele>
        <time>2011-04-06T10:27:28Z</time>
      </trkpt>
      <trkpt lat="44.75565" lon="7.02354">
        <ele>2612.52</ele>
        <time>2011-04-06T10:27:29Z</time>
      </trkpt>
      <trkpt lat="44.75584" lon="7.02392">
        <ele>2606.27</ele>
        <time>2011-04-06T10:27:33Z</time>
      </trkpt>
      <trkpt lat="44.75589" lon="7.02398">
        <ele>2605.31</ele>
        <time>2011-04-06T10:27:34Z</time>
      </trkpt>
      <trkpt lat="44.75602" lon="7.0241">
        <ele>2601.46</ele>
        <time>2011-04-06T10:27:37Z</time>
      </trkpt>
      <trkpt lat="44.75615" lon="7.02412">
        <ele>2598.1</ele>
        <time>2011-04-06T10:27:39Z</time>
      </trkpt>
      <trkpt lat="44.75629" lon="7.02411">
        <ele>2593.29</ele>
        <time>2011-04-06T10:27:41Z</time>
      </trkpt>
      <trkpt lat="44.7565" lon="7.02408">
        <ele>2586.08</ele>
        <time>2011-04-06T10:27:44Z</time>
      </trkpt>
      <trkpt lat="44.75664" lon="7.02406">
        <ele>2581.76</ele>
        <time>2011-04-06T10:27:46Z</time>
      </trkpt>
      <trkpt lat="44.75679" lon="7.02405">
        <ele>2575.51</ele>
        <time>2011-04-06T10:27:48Z</time>
      </trkpt>
      <trkpt lat="44.75686" lon="7.02403">
        <ele>2571.66</ele>
        <time>2011-04-06T10:27:49Z</time>
      </trkpt>
      <trkpt lat="44.75697" lon="7.02398">
        <ele>2568.78</ele>
        <time>2011-04-06T10:27:51Z</time>
      </trkpt>
      <trkpt lat="44.75711" lon="7.02407">
        <ele>2563.97</ele>
        <time>2011-04-06T10:27:54Z</time>
      </trkpt>
      <trkpt lat="44.75715" lon="7.02405">
        <ele>2560.61</ele>
        <time>2011-04-06T10:27:55Z</time>
      </trkpt>
      <trkpt lat="44.75725" lon="7.0239">
        <ele>2554.84</ele>
        <time>2011-04-06T10:27:59Z</time>
      </trkpt>
      <trkpt lat="44.75731" lon="7.02388">
        <ele>2551</ele>
        <time>2011-04-06T10:28:00Z</time>
      </trkpt>
      <trkpt lat="44.75742" lon="7.02391">
        <ele>2547.15</ele>
        <time>2011-04-06T10:28:02Z</time>
      </trkpt>
      <trkpt lat="44.75751" lon="7.02406">
        <ele>2544.27</ele>
        <time>2011-04-06T10:28:05Z</time>
      </trkpt>
      <trkpt lat="44.75751" lon="7.02404">
        <ele>2543.79</ele>
        <time>2011-04-06T10:28:16Z</time>
      </trkpt>
      <trkpt lat="44.7575" lon="7.02404">
        <ele>2544.75</ele>
        <time>2011-04-06T10:28:50Z</time>
      </trkpt>
      <trkpt lat="44.75751" lon="7.02402">
        <ele>2543.31</ele>
        <time>2011-04-06T10:29:25Z</time>
      </trkpt>
      <trkpt lat="44.75751" lon="7.02402">
        <ele>2543.31</ele>
        <time>2011-04-06T10:29:40Z</time>
      </trkpt>
      <trkpt lat="44.75757" lon="7.02406">
        <ele>2540.9</ele>
        <time>2011-04-06T10:29:43Z</time>
      </trkpt>
      <trkpt lat="44.75767" lon="7.02399">
        <ele>2534.65</ele>
        <time>2011-04-06T10:29:46Z</time>
      </trkpt>
      <trkpt lat="44.75776" lon="7.02389">
        <ele>2529.37</ele>
        <time>2011-04-06T10:29:48Z</time>
      </trkpt>
      <trkpt lat="44.75781" lon="7.02384">
        <ele>2526.48</ele>
        <time>2011-04-06T10:29:49Z</time>
      </trkpt>
      <trkpt lat="44.75798" lon="7.02368">
        <ele>2514.95</ele>
        <time>2011-04-06T10:29:52Z</time>
      </trkpt>
      <trkpt lat="44.75805" lon="7.02363">
        <ele>2510.62</ele>
        <time>2011-04-06T10:29:53Z</time>
      </trkpt>
      <trkpt lat="44.75812" lon="7.02359">
        <ele>2509.18</ele>
        <time>2011-04-06T10:29:54Z</time>
      </trkpt>
      <trkpt lat="44.75826" lon="7.0235">
        <ele>2502.45</ele>
        <time>2011-04-06T10:29:56Z</time>
      </trkpt>
      <trkpt lat="44.7584" lon="7.02342">
        <ele>2497.64</ele>
        <time>2011-04-06T10:29:58Z</time>
      </trkpt>
      <trkpt lat="44.75847" lon="7.02334">
        <ele>2492.36</ele>
        <time>2011-04-06T10:30:01Z</time>
      </trkpt>
      <trkpt lat="44.75846" lon="7.02333">
        <ele>2492.36</ele>
        <time>2011-04-06T10:30:02Z</time>
      </trkpt>
      <trkpt lat="44.75845" lon="7.02333">
        <ele>2492.84</ele>
        <time>2011-04-06T10:30:08Z</time>
      </trkpt>
      <trkpt lat="44.75852" lon="7.02324">
        <ele>2488.51</ele>
        <time>2011-04-06T10:30:12Z</time>
      </trkpt>
      <trkpt lat="44.75868" lon="7.02321">
        <ele>2482.74</ele>
        <time>2011-04-06T10:30:15Z</time>
      </trkpt>
      <trkpt lat="44.7589" lon="7.02307">
        <ele>2474.09</ele>
        <time>2011-04-06T10:30:18Z</time>
      </trkpt>
      <trkpt lat="44.75893" lon="7.02305">
        <ele>2472.65</ele>
        <time>2011-04-06T10:30:19Z</time>
      </trkpt>
      <trkpt lat="44.75898" lon="7.02299">
        <ele>2469.28</ele>
        <time>2011-04-06T10:30:20Z</time>
      </trkpt>
      <trkpt lat="44.75902" lon="7.02295">
        <ele>2468.8</ele>
        <time>2011-04-06T10:30:21Z</time>
      </trkpt>
      <trkpt lat="44.75908" lon="7.02281">
        <ele>2459.19</ele>
        <time>2011-04-06T10:30:24Z</time>
      </trkpt>
      <trkpt lat="44.75909" lon="7.02279">
        <ele>2459.67</ele>
        <time>2011-04-06T10:30:25Z</time>
      </trkpt>
      <trkpt lat="44.7592" lon="7.02271">
        <ele>2454.38</ele>
        <time>2011-04-06T10:30:27Z</time>
      </trkpt>
      <trkpt lat="44.75943" lon="7.02236">
        <ele>2451.5</ele>
        <time>2011-04-06T10:30:32Z</time>
      </trkpt>
      <trkpt lat="44.7595" lon="7.02209">
        <ele>2449.58</ele>
        <time>2011-04-06T10:30:35Z</time>
      </trkpt>
      <trkpt lat="44.75953" lon="7.02196">
        <ele>2442.37</ele>
        <time>2011-04-06T10:30:37Z</time>
      </trkpt>
      <trkpt lat="44.75959" lon="7.02188">
        <ele>2440.92</ele>
        <time>2011-04-06T10:30:43Z</time>
      </trkpt>
      <trkpt lat="44.75959" lon="7.02188">
        <ele>2441.41</ele>
        <time>2011-04-06T10:30:53Z</time>
      </trkpt>
      <trkpt lat="44.75959" lon="7.02192">
        <ele>2441.41</ele>
        <time>2011-04-06T10:30:55Z</time>
      </trkpt>
      <trkpt lat="44.75974" lon="7.0222">
        <ele>2434.68</ele>
        <time>2011-04-06T10:31:00Z</time>
      </trkpt>
      <trkpt lat="44.75978" lon="7.02228">
        <ele>2434.2</ele>
        <time>2011-04-06T10:31:01Z</time>
      </trkpt>
      <trkpt lat="44.75987" lon="7.02242">
        <ele>2433.23</ele>
        <time>2011-04-06T10:31:03Z</time>
      </trkpt>
      <trkpt lat="44.75998" lon="7.02258">
        <ele>2428.43</ele>
        <time>2011-04-06T10:31:06Z</time>
      </trkpt>
      <trkpt lat="44.76" lon="7.02259">
        <ele>2426.99</ele>
        <time>2011-04-06T10:31:07Z</time>
      </trkpt>
      <trkpt lat="44.76019" lon="7.02262">
        <ele>2423.14</ele>
        <time>2011-04-06T10:31:10Z</time>
      </trkpt>
      <trkpt lat="44.76033" lon="7.02265">
        <ele>2420.26</ele>
        <time>2011-04-06T10:31:12Z</time>
      </trkpt>
      <trkpt lat="44.76047" lon="7.02268">
        <ele>2417.85</ele>
        <time>2011-04-06T10:31:14Z</time>
      </trkpt>
      <trkpt lat="44.76062" lon="7.02272">
        <ele>2417.37</ele>
        <time>2011-04-06T10:31:23Z</time>
      </trkpt>
      <trkpt lat="44.76062" lon="7.02272">
        <ele>2417.85</ele>
        <time>2011-04-06T10:31:48Z</time>
      </trkpt>
      <trkpt lat="44.7606" lon="7.0227">
        <ele>2418.81</ele>
        <time>2011-04-06T10:32:21Z</time>
      </trkpt>
      <trkpt lat="44.7606" lon="7.0227">
        <ele>2419.78</ele>
        <time>2011-04-06T10:32:47Z</time>
      </trkpt>
      <trkpt lat="44.7605" lon="7.02247">
        <ele>2413.53</ele>
        <time>2011-04-06T10:33:46Z</time>
      </trkpt>
      <trkpt lat="44.76056" lon="7.02225">
        <ele>2411.6</ele>
        <time>2011-04-06T10:35:36Z</time>
      </trkpt>
      <trkpt lat="44.76059" lon="7.02188">
        <ele>2399.11</ele>
        <time>2011-04-06T10:35:41Z</time>
      </trkpt>
      <trkpt lat="44.76075" lon="7.02157">
        <ele>2385.65</ele>
        <time>2011-04-06T10:35:46Z</time>
      </trkpt>
      <trkpt lat="44.7607" lon="7.02128">
        <ele>2381.32</ele>
        <time>2011-04-06T10:35:50Z</time>
      </trkpt>
      <trkpt lat="44.76105" lon="7.02084">
        <ele>2353.44</ele>
        <time>2011-04-06T10:36:00Z</time>
      </trkpt>
      <trkpt lat="44.76115" lon="7.02032">
        <ele>2331.33</ele>
        <time>2011-04-06T10:36:10Z</time>
      </trkpt>
      <trkpt lat="44.76135" lon="7.02001">
        <ele>2317.88</ele>
        <time>2011-04-06T10:36:15Z</time>
      </trkpt>
      <trkpt lat="44.76165" lon="7.01961">
        <ele>2310.19</ele>
        <time>2011-04-06T10:36:21Z</time>
      </trkpt>
      <trkpt lat="44.76191" lon="7.01925">
        <ele>2309.7</ele>
        <time>2011-04-06T10:39:02Z</time>
      </trkpt>
      <trkpt lat="44.7622" lon="7.0186">
        <ele>2303.46</ele>
        <time>2011-04-06T10:39:13Z</time>
      </trkpt>
      <trkpt lat="44.76263" lon="7.01774">
        <ele>2297.21</ele>
        <time>2011-04-06T10:39:26Z</time>
      </trkpt>
      <trkpt lat="44.76299" lon="7.01683">
        <ele>2285.19</ele>
        <time>2011-04-06T10:39:36Z</time>
      </trkpt>
      <trkpt lat="44.76326" lon="7.01593">
        <ele>2277.02</ele>
        <time>2011-04-06T10:39:46Z</time>
      </trkpt>
      <trkpt lat="44.76348" lon="7.01541">
        <ele>2274.62</ele>
        <time>2011-04-06T10:39:52Z</time>
      </trkpt>
      <trkpt lat="44.76365" lon="7.01496">
        <ele>2273.66</ele>
        <time>2011-04-06T10:40:10Z</time>
      </trkpt>
      <trkpt lat="44.76384" lon="7.01427">
        <ele>2265.48</ele>
        <time>2011-04-06T10:40:20Z</time>
      </trkpt>
      <trkpt lat="44.76405" lon="7.01347">
        <ele>2258.27</ele>
        <time>2011-04-06T10:40:27Z</time>
      </trkpt>
      <trkpt lat="44.76419" lon="7.01279">
        <ele>2252.51</ele>
        <time>2011-04-06T10:40:33Z</time>
      </trkpt>
      <trkpt lat="44.76421" lon="7.01245">
        <ele>2250.58</ele>
        <time>2011-04-06T10:40:37Z</time>
      </trkpt>
      <trkpt lat="44.76439" lon="7.01222">
        <ele>2251.06</ele>
        <time>2011-04-06T10:41:27Z</time>
      </trkpt>
      <trkpt lat="44.76455" lon="7.01194">
        <ele>2247.7</ele>
        <time>2011-04-06T10:42:36Z</time>
      </trkpt>
      <trkpt lat="44.76466" lon="7.0115">
        <ele>2243.85</ele>
        <time>2011-04-06T10:42:44Z</time>
      </trkpt>
      <trkpt lat="44.76486" lon="7.01082">
        <ele>2237.61</ele>
        <time>2011-04-06T10:42:59Z</time>
      </trkpt>
      <trkpt lat="44.76487" lon="7.01039">
        <ele>2234.24</ele>
        <time>2011-04-06T10:43:08Z</time>
      </trkpt>
      <trkpt lat="44.76497" lon="7.00995">
        <ele>2230.4</ele>
        <time>2011-04-06T10:44:47Z</time>
      </trkpt>
      <trkpt lat="44.76513" lon="7.00896">
        <ele>2221.26</ele>
        <time>2011-04-06T10:45:12Z</time>
      </trkpt>
      <trkpt lat="44.76517" lon="7.00838">
        <ele>2208.77</ele>
        <time>2011-04-06T10:46:10Z</time>
      </trkpt>
      <trkpt lat="44.76517" lon="7.00794">
        <ele>2200.11</ele>
        <time>2011-04-06T10:46:52Z</time>
      </trkpt>
      <trkpt lat="44.76519" lon="7.00785">
        <ele>2198.67</ele>
        <time>2011-04-06T10:46:55Z</time>
      </trkpt>
      <trkpt lat="44.76477" lon="7.00695">
        <ele>2190.98</ele>
        <time>2011-04-06T10:47:16Z</time>
      </trkpt>
      <trkpt lat="44.76467" lon="7.00659">
        <ele>2183.77</ele>
        <time>2011-04-06T10:47:22Z</time>
      </trkpt>
      <trkpt lat="44.76434" lon="7.00605">
        <ele>2179.45</ele>
        <time>2011-04-06T10:48:03Z</time>
      </trkpt>
      <trkpt lat="44.76415" lon="7.00594">
        <ele>2178</ele>
        <time>2011-04-06T10:48:15Z</time>
      </trkpt>
      <trkpt lat="44.76428" lon="7.00593">
        <ele>2169.35</ele>
        <time>2011-04-06T10:48:24Z</time>
      </trkpt>
      <trkpt lat="44.76424" lon="7.0056">
        <ele>2161.18</ele>
        <time>2011-04-06T10:48:32Z</time>
      </trkpt>
      <trkpt lat="44.76413" lon="7.00534">
        <ele>2155.41</ele>
        <time>2011-04-06T10:49:04Z</time>
      </trkpt>
      <trkpt lat="44.7643" lon="7.00493">
        <ele>2139.07</ele>
        <time>2011-04-06T10:49:17Z</time>
      </trkpt>
      <trkpt lat="44.76446" lon="7.00453">
        <ele>2137.15</ele>
        <time>2011-04-06T10:49:27Z</time>
      </trkpt>
      <trkpt lat="44.76446" lon="7.00453">
        <ele>2136.67</ele>
        <time>2011-04-06T10:49:28Z</time>
      </trkpt>
      <trkpt lat="44.76436" lon="7.00405">
        <ele>2121.77</ele>
        <time>2011-04-06T10:49:59Z</time>
      </trkpt>
      <trkpt lat="44.76432" lon="7.00369">
        <ele>2106.87</ele>
        <time>2011-04-06T10:50:26Z</time>
      </trkpt>
      <trkpt lat="44.76453" lon="7.00328">
        <ele>2103.02</ele>
        <time>2011-04-06T10:51:19Z</time>
      </trkpt>
      <trkpt lat="44.76455" lon="7.00327">
        <ele>2103.5</ele>
        <time>2011-04-06T10:53:49Z</time>
      </trkpt>
      <trkpt lat="44.76455" lon="7.0032">
        <ele>2097.25</ele>
        <time>2011-04-06T10:57:42Z</time>
      </trkpt>
      <trkpt lat="44.7644" lon="7.00312">
        <ele>2091</ele>
        <time>2011-04-06T10:59:42Z</time>
      </trkpt>
      <trkpt lat="44.76438" lon="7.00314">
        <ele>2089.56</ele>
        <time>2011-04-06T11:01:46Z</time>
      </trkpt>
      <trkpt lat="44.76417" lon="7.00323">
        <ele>2088.6</ele>
        <time>2011-04-06T11:03:10Z</time>
      </trkpt>
      <trkpt lat="44.76407" lon="7.00335">
        <ele>2081.39</ele>
        <time>2011-04-06T11:04:17Z</time>
      </trkpt>
      <trkpt lat="44.76398" lon="7.00342">
        <ele>2071.78</ele>
        <time>2011-04-06T11:05:32Z</time>
      </trkpt>
      <trkpt lat="44.76398" lon="7.00344">
        <ele>2071.78</ele>
        <time>2011-04-06T11:05:48Z</time>
      </trkpt>
      <trkpt lat="44.76385" lon="7.00359">
        <ele>2065.05</ele>
        <time>2011-04-06T11:06:54Z</time>
      </trkpt>
      <trkpt lat="44.76372" lon="7.0036">
        <ele>2063.61</ele>
        <time>2011-04-06T11:09:08Z</time>
      </trkpt>
      <trkpt lat="44.76372" lon="7.0036">
        <ele>2063.13</ele>
        <time>2011-04-06T11:10:40Z</time>
      </trkpt>
      <trkpt lat="44.76352" lon="7.00365">
        <ele>2052.07</ele>
        <time>2011-04-06T11:11:32Z</time>
      </trkpt>
      <trkpt lat="44.76347" lon="7.00352">
        <ele>2045.82</ele>
        <time>2011-04-06T11:14:29Z</time>
      </trkpt>
      <trkpt lat="44.76331" lon="7.00278">
        <ele>2032.84</ele>
        <time>2011-04-06T11:14:46Z</time>
      </trkpt>
      <trkpt lat="44.76318" lon="7.00173">
        <ele>2028.52</ele>
        <time>2011-04-06T11:15:34Z</time>
      </trkpt>
      <trkpt lat="44.76303" lon="7.00127">
        <ele>2018.91</ele>
        <time>2011-04-06T11:16:14Z</time>
      </trkpt>
      <trkpt lat="44.76263" lon="7.00095">
        <ele>2015.06</ele>
        <time>2011-04-06T11:17:27Z</time>
      </trkpt>
      <trkpt lat="44.76252" lon="7.00085">
        <ele>2009.29</ele>
        <time>2011-04-06T11:19:28Z</time>
      </trkpt>
      <trkpt lat="44.7624" lon="7.00077">
        <ele>2007.85</ele>
        <time>2011-04-06T11:22:29Z</time>
      </trkpt>
      <trkpt lat="44.76208" lon="7.00067">
        <ele>2001.12</ele>
        <time>2011-04-06T12:27:48Z</time>
      </trkpt>
      <trkpt lat="44.7617" lon="7.00066">
        <ele>1992.47</ele>
        <time>2011-04-06T12:27:58Z</time>
      </trkpt>
      <trkpt lat="44.76174" lon="7.00025">
        <ele>1977.09</ele>
        <time>2011-04-06T12:28:47Z</time>
      </trkpt>
      <trkpt lat="44.76148" lon="6.99983">
        <ele>1969.4</ele>
        <time>2011-04-06T12:29:27Z</time>
      </trkpt>
      <trkpt lat="44.76135" lon="6.99978">
        <ele>1958.34</ele>
        <time>2011-04-06T12:29:59Z</time>
      </trkpt>
      <trkpt lat="44.76137" lon="6.9993">
        <ele>1949.69</ele>
        <time>2011-04-06T12:30:20Z</time>
      </trkpt>
      <trkpt lat="44.76091" lon="6.9988">
        <ele>1937.67</ele>
        <time>2011-04-06T12:30:56Z</time>
      </trkpt>
      <trkpt lat="44.76067" lon="6.99875">
        <ele>1933.35</ele>
        <time>2011-04-06T12:31:24Z</time>
      </trkpt>
      <trkpt lat="44.76055" lon="6.99869">
        <ele>1927.1</ele>
        <time>2011-04-06T12:31:44Z</time>
      </trkpt>
      <trkpt lat="44.76053" lon="6.9985">
        <ele>1918.45</ele>
        <time>2011-04-06T12:32:09Z</time>
      </trkpt>
      <trkpt lat="44.7606" lon="6.99847">
        <ele>1910.76</ele>
        <time>2011-04-06T12:32:34Z</time>
      </trkpt>
      <trkpt lat="44.76084" lon="6.99815">
        <ele>1903.07</ele>
        <time>2011-04-06T12:33:14Z</time>
      </trkpt>
      <trkpt lat="44.76081" lon="6.99799">
        <ele>1894.42</ele>
        <time>2011-04-06T12:34:05Z</time>
      </trkpt>
      <trkpt lat="44.76064" lon="6.99752">
        <ele>1886.24</ele>
        <time>2011-04-06T12:34:20Z</time>
      </trkpt>
      <trkpt lat="44.76037" lon="6.9976">
        <ele>1879.51</ele>
        <time>2011-04-06T12:35:03Z</time>
      </trkpt>
      <trkpt lat="44.7604" lon="6.99741">
        <ele>1871.34</ele>
        <time>2011-04-06T12:35:28Z</time>
      </trkpt>
      <trkpt lat="44.76032" lon="6.99717">
        <ele>1862.69</ele>
        <time>2011-04-06T12:36:09Z</time>
      </trkpt>
      <trkpt lat="44.76031" lon="6.99708">
        <ele>1854.52</ele>
        <time>2011-04-06T12:36:29Z</time>
      </trkpt>
      <trkpt lat="44.76051" lon="6.99671">
        <ele>1848.75</ele>
        <time>2011-04-06T12:37:01Z</time>
      </trkpt>
      <trkpt lat="44.76022" lon="6.99607">
        <ele>1836.26</ele>
        <time>2011-04-06T12:37:30Z</time>
      </trkpt>
      <trkpt lat="44.75986" lon="6.99607">
        <ele>1829.05</ele>
        <time>2011-04-06T12:37:46Z</time>
      </trkpt>
      <trkpt lat="44.75986" lon="6.99595">
        <ele>1823.28</ele>
        <time>2011-04-06T12:38:19Z</time>
      </trkpt>
      <trkpt lat="44.75997" lon="6.99559">
        <ele>1813.18</ele>
        <time>2011-04-06T12:38:56Z</time>
      </trkpt>
      <trkpt lat="44.7603" lon="6.99537">
        <ele>1803.57</ele>
        <time>2011-04-06T12:39:19Z</time>
      </trkpt>
      <trkpt lat="44.76016" lon="6.99514">
        <ele>1797.32</ele>
        <time>2011-04-06T12:39:40Z</time>
      </trkpt>
      <trkpt lat="44.76011" lon="6.99483">
        <ele>1785.79</ele>
        <time>2011-04-06T12:39:52Z</time>
      </trkpt>
      <trkpt lat="44.75981" lon="6.99468">
        <ele>1781.94</ele>
        <time>2011-04-06T12:40:46Z</time>
      </trkpt>
      <trkpt lat="44.75965" lon="6.9947">
        <ele>1778.1</ele>
        <time>2011-04-06T12:42:25Z</time>
      </trkpt>
      <trkpt lat="44.75914" lon="6.99475">
        <ele>1772.33</ele>
        <time>2011-04-06T12:43:13Z</time>
      </trkpt>
      <trkpt lat="44.75881" lon="6.99496">
        <ele>1770.41</ele>
        <time>2011-04-06T12:44:11Z</time>
      </trkpt>
      <trkpt lat="44.75878" lon="6.99479">
        <ele>1766.56</ele>
        <time>2011-04-06T12:44:59Z</time>
      </trkpt>
      <trkpt lat="44.75887" lon="6.99453">
        <ele>1758.87</ele>
        <time>2011-04-06T12:45:56Z</time>
      </trkpt>
      <trkpt lat="44.75893" lon="6.9942">
        <ele>1753.58</ele>
        <time>2011-04-06T12:46:24Z</time>
      </trkpt>
      <trkpt lat="44.75906" lon="6.99348">
        <ele>1745.89</ele>
        <time>2011-04-06T12:47:12Z</time>
      </trkpt>
      <trkpt lat="44.75857" lon="6.99318">
        <ele>1741.57</ele>
        <time>2011-04-06T12:48:02Z</time>
      </trkpt>
      <trkpt lat="44.75808" lon="6.99296">
        <ele>1737.24</ele>
        <time>2011-04-06T12:48:49Z</time>
      </trkpt>
      <trkpt lat="44.75814" lon="6.9928">
        <ele>1734.84</ele>
        <time>2011-04-06T12:49:47Z</time>
      </trkpt>
      <trkpt lat="44.7582" lon="6.99289">
        <ele>1733.88</ele>
        <time>2011-04-06T12:50:55Z</time>
      </trkpt>
      <trkpt lat="44.75819" lon="6.99267">
        <ele>1732.43</ele>
        <time>2011-04-06T12:51:46Z</time>
      </trkpt>
      <trkpt lat="44.75819" lon="6.99268">
        <ele>1730.51</ele>
        <time>2011-04-06T12:53:36Z</time>
      </trkpt>
      <trkpt lat="44.75819" lon="6.99268">
        <ele>1730.03</ele>
        <time>2011-04-06T12:54:48Z</time>
      </trkpt>
    </trkseg>
  </trk>
</gpx>